sensor_id;sensor_type;location;lat;lon;timestamp;P1;P2;P0
69346;PMS5003;56494;43.536;5.048;2022-08-04T00:01:41;21.00;21.00;15.00
69346;PMS5003;56494;43.536;5.048;2022-08-04T00:04:18;16.75;16.75;13.25
69346;PMS5003;56494;43.536;5.048;2022-08-04T00:09:37;20.60;17.80;13.80
69346;PMS5003;56494;43.536;5.048;2022-08-04T00:12:05;22.80;21.00;15.00
69346;PMS5003;56494;43.536;5.048;2022-08-04T00:14:33;18.20;17.20;14.20
69346;PMS5003;56494;43.536;5.048;2022-08-04T00:17:04;19.00;18.00;14.00
69346;PMS5003;56494;43.536;5.048;2022-08-04T00:19:39;21.75;20.00;15.00
69346;PMS5003;56494;43.536;5.048;2022-08-04T00:22:07;21.00;18.75;13.75
69346;PMS5003;56494;43.536;5.048;2022-08-04T00:24:35;20.25;18.75;14.00
69346;PMS5003;56494;43.536;5.048;2022-08-04T00:27:02;24.50;19.50;14.25
69346;PMS5003;56494;43.536;5.048;2022-08-04T00:29:29;18.75;18.75;13.00
69346;PMS5003;56494;43.536;5.048;2022-08-04T00:31:56;19.75;19.00;14.75
69346;PMS5003;56494;43.536;5.048;2022-08-04T00:34:27;20.00;19.40;14.20
69346;PMS5003;56494;43.536;5.048;2022-08-04T00:36:54;21.00;21.00;15.40
69346;PMS5003;56494;43.536;5.048;2022-08-04T00:39:21;17.00;17.00;13.00
69346;PMS5003;56494;43.536;5.048;2022-08-04T00:41:56;19.00;19.00;15.20
69346;PMS5003;56494;43.536;5.048;2022-08-04T00:44:44;21.20;21.20;16.80
69346;PMS5003;56494;43.536;5.048;2022-08-04T00:47:26;20.00;19.00;15.00
69346;PMS5003;56494;43.536;5.048;2022-08-04T00:55:22;19.00;19.00;14.00
69346;PMS5003;56494;43.536;5.048;2022-08-04T01:00:19;19.00;19.00;15.00
69346;PMS5003;56494;43.536;5.048;2022-08-04T01:08:13;32.75;18.00;13.75
69346;PMS5003;56494;43.536;5.048;2022-08-04T01:15:45;24.00;21.20;15.80
69346;PMS5003;56494;43.536;5.048;2022-08-04T01:18:38;22.20;19.20;13.60
69346;PMS5003;56494;43.536;5.048;2022-08-04T01:29:22;23.60;20.60;15.00
69346;PMS5003;56494;43.536;5.048;2022-08-04T01:32:06;19.00;19.00;14.40
69346;PMS5003;56494;43.536;5.048;2022-08-04T01:34:40;30.25;19.75;16.00
69346;PMS5003;56494;43.536;5.048;2022-08-04T01:37:10;28.40;21.00;16.00
69346;PMS5003;56494;43.536;5.048;2022-08-04T01:39:41;17.00;16.60;13.60
69346;PMS5003;56494;43.536;5.048;2022-08-04T01:42:10;28.00;20.00;14.25
69346;PMS5003;56494;43.536;5.048;2022-08-04T01:44:47;34.00;21.40;15.80
69346;PMS5003;56494;43.536;5.048;2022-08-04T01:47:16;21.20;19.80;14.80
69346;PMS5003;56494;43.536;5.048;2022-08-04T01:49:43;35.25;20.25;15.00
69346;PMS5003;56494;43.536;5.048;2022-08-04T01:52:13;19.60;19.40;14.60
69346;PMS5003;56494;43.536;5.048;2022-08-04T01:54:41;18.80;18.00;14.80
69346;PMS5003;56494;43.536;5.048;2022-08-04T01:57:09;18.00;18.00;14.00
69346;PMS5003;56494;43.536;5.048;2022-08-04T01:59:57;34.50;18.50;14.00
69346;PMS5003;56494;43.536;5.048;2022-08-04T02:02:24;19.00;19.00;15.00
69346;PMS5003;56494;43.536;5.048;2022-08-04T02:04:51;18.50;18.50;14.00
69346;PMS5003;56494;43.536;5.048;2022-08-04T02:07:31;25.00;22.60;16.00
69346;PMS5003;56494;43.536;5.048;2022-08-04T02:12:48;18.00;18.00;14.00
69346;PMS5003;56494;43.536;5.048;2022-08-04T02:17:59;18.40;16.60;14.40
69346;PMS5003;56494;43.536;5.048;2022-08-04T02:20:36;18.00;18.00;13.00
69346;PMS5003;56494;43.536;5.048;2022-08-04T02:23:05;18.00;16.20;13.20
69346;PMS5003;56494;43.536;5.048;2022-08-04T02:25:38;17.60;17.60;14.00
69346;PMS5003;56494;43.536;5.048;2022-08-04T02:33:37;21.25;20.00;16.25
69346;PMS5003;56494;43.536;5.048;2022-08-04T02:36:05;33.40;17.80;12.40
69346;PMS5003;56494;43.536;5.048;2022-08-04T02:41:08;19.40;18.40;14.40
69346;PMS5003;56494;43.536;5.048;2022-08-04T02:43:35;19.00;19.00;16.00
69346;PMS5003;56494;43.536;5.048;2022-08-04T02:46:18;19.60;18.80;14.80
69346;PMS5003;56494;43.536;5.048;2022-08-04T02:48:45;19.20;18.60;14.60
69346;PMS5003;56494;43.536;5.048;2022-08-04T02:51:14;18.20;18.20;13.80
69346;PMS5003;56494;43.536;5.048;2022-08-04T02:53:41;18.80;18.40;13.40
69346;PMS5003;56494;43.536;5.048;2022-08-04T02:56:08;31.20;16.60;11.80
69346;PMS5003;56494;43.536;5.048;2022-08-04T02:58:37;20.60;18.80;15.20
69346;PMS5003;56494;43.536;5.048;2022-08-04T03:01:06;22.00;20.25;16.00
69346;PMS5003;56494;43.536;5.048;2022-08-04T03:03:43;19.33;18.33;14.00
69346;PMS5003;56494;43.536;5.048;2022-08-04T03:09:16;19.80;18.80;15.20
69346;PMS5003;56494;43.536;5.048;2022-08-04T03:11:50;18.00;18.00;14.25
69346;PMS5003;56494;43.536;5.048;2022-08-04T03:34:09;23.00;21.50;16.00
69346;PMS5003;56494;43.536;5.048;2022-08-04T03:39:35;19.25;19.25;15.00
69346;PMS5003;56494;43.536;5.048;2022-08-04T03:42:18;31.00;17.75;13.00
69346;PMS5003;56494;43.536;5.048;2022-08-04T03:44:56;19.60;18.00;14.00
69346;PMS5003;56494;43.536;5.048;2022-08-04T03:58:38;30.25;17.75;13.25
69346;PMS5003;56494;43.536;5.048;2022-08-04T04:12:40;22.50;18.50;16.00
69346;PMS5003;56494;43.536;5.048;2022-08-04T04:20:24;17.40;17.40;13.40
69346;PMS5003;56494;43.536;5.048;2022-08-04T04:25:30;21.20;19.20;14.60
69346;PMS5003;56494;43.536;5.048;2022-08-04T04:33:25;31.00;16.60;11.00
69346;PMS5003;56494;43.536;5.048;2022-08-04T04:41:01;18.50;14.50;12.50
69346;PMS5003;56494;43.536;5.048;2022-08-04T04:49:19;21.00;21.00;15.00
69346;PMS5003;56494;43.536;5.048;2022-08-04T04:51:49;20.80;18.80;14.00
69346;PMS5003;56494;43.536;5.048;2022-08-04T04:59:35;21.25;16.00;13.00
69346;PMS5003;56494;43.536;5.048;2022-08-04T05:12:35;22.40;17.60;13.60
69346;PMS5003;56494;43.536;5.048;2022-08-04T05:15:25;19.00;17.40;13.00
69346;PMS5003;56494;43.536;5.048;2022-08-04T05:17:54;17.60;14.00;11.00
69346;PMS5003;56494;43.536;5.048;2022-08-04T05:20:24;33.40;19.00;13.60
69346;PMS5003;56494;43.536;5.048;2022-08-04T05:25:23;19.50;19.00;13.50
69346;PMS5003;56494;43.536;5.048;2022-08-04T05:27:55;25.80;22.20;17.20
69346;PMS5003;56494;43.536;5.048;2022-08-04T05:30:23;30.80;25.40;16.60
69346;PMS5003;56494;43.536;5.048;2022-08-04T05:33:04;25.00;21.80;16.00
69346;PMS5003;56494;43.536;5.048;2022-08-04T05:35:33;23.50;21.50;15.50
69346;PMS5003;56494;43.536;5.048;2022-08-04T05:38:21;20.60;20.60;16.00
69346;PMS5003;56494;43.536;5.048;2022-08-04T05:40:48;23.40;19.60;13.40
69346;PMS5003;56494;43.536;5.048;2022-08-04T05:43:16;23.40;21.00;14.60
69346;PMS5003;56494;43.536;5.048;2022-08-04T05:45:43;28.75;23.00;15.25
69346;PMS5003;56494;43.536;5.048;2022-08-04T05:48:14;29.00;25.00;16.00
69346;PMS5003;56494;43.536;5.048;2022-08-04T05:50:42;42.40;24.20;16.80
69346;PMS5003;56494;43.536;5.048;2022-08-04T05:53:09;29.80;23.80;14.40
69346;PMS5003;56494;43.536;5.048;2022-08-04T05:55:36;25.00;22.00;16.00
69346;PMS5003;56494;43.536;5.048;2022-08-04T05:58:23;38.00;20.50;14.50
69346;PMS5003;56494;43.536;5.048;2022-08-04T06:00:50;22.60;21.20;14.20
69346;PMS5003;56494;43.536;5.048;2022-08-04T06:03:19;42.50;23.00;15.00
69346;PMS5003;56494;43.536;5.048;2022-08-04T06:05:47;22.50;21.75;15.00
69346;PMS5003;56494;43.536;5.048;2022-08-04T06:08:15;40.75;28.00;18.00
69346;PMS5003;56494;43.536;5.048;2022-08-04T06:10:42;27.20;21.60;15.00
69346;PMS5003;56494;43.536;5.048;2022-08-04T06:13:10;41.60;26.00;17.00
69346;PMS5003;56494;43.536;5.048;2022-08-04T06:15:57;30.00;22.60;14.00
69346;PMS5003;56494;43.536;5.048;2022-08-04T06:18:27;31.00;26.00;17.50
69346;PMS5003;56494;43.536;5.048;2022-08-04T06:21:14;45.80;28.40;18.80
69346;PMS5003;56494;43.536;5.048;2022-08-04T06:23:42;26.00;22.40;16.40
69346;PMS5003;56494;43.536;5.048;2022-08-04T06:26:26;28.50;22.00;15.00
69346;PMS5003;56494;43.536;5.048;2022-08-04T06:28:54;38.25;25.25;16.25
69346;PMS5003;56494;43.536;5.048;2022-08-04T06:31:22;44.00;25.20;17.20
69346;PMS5003;56494;43.536;5.048;2022-08-04T06:34:28;30.50;25.25;17.25
69346;PMS5003;56494;43.536;5.048;2022-08-04T06:36:55;24.60;23.60;17.00
69346;PMS5003;56494;43.536;5.048;2022-08-04T06:39:23;40.60;24.60;15.60
69346;PMS5003;56494;43.536;5.048;2022-08-04T06:41:52;31.00;20.00;14.00
69346;PMS5003;56494;43.536;5.048;2022-08-04T06:44:39;31.50;23.00;16.50
69346;PMS5003;56494;43.536;5.048;2022-08-04T06:47:06;31.00;27.25;18.00
69346;PMS5003;56494;43.536;5.048;2022-08-04T06:49:33;32.60;26.00;16.60
69346;PMS5003;56494;43.536;5.048;2022-08-04T06:52:20;30.75;24.25;15.25
69346;PMS5003;56494;43.536;5.048;2022-08-04T06:54:48;39.60;24.60;15.80
69346;PMS5003;56494;43.536;5.048;2022-08-04T06:57:16;24.00;23.50;16.50
69346;PMS5003;56494;43.536;5.048;2022-08-04T06:59:44;31.75;27.25;18.00
69346;PMS5003;56494;43.536;5.048;2022-08-04T07:02:16;37.00;23.00;17.00
69346;PMS5003;56494;43.536;5.048;2022-08-04T07:04:44;42.00;26.75;18.00
69346;PMS5003;56494;43.536;5.048;2022-08-04T07:07:11;29.00;25.00;18.00
69346;PMS5003;56494;43.536;5.048;2022-08-04T07:09:39;26.00;22.20;16.20
69346;PMS5003;56494;43.536;5.048;2022-08-04T07:12:09;28.00;23.40;17.00
69346;PMS5003;56494;43.536;5.048;2022-08-04T07:14:42;29.00;24.40;17.00
69346;PMS5003;56494;43.536;5.048;2022-08-04T07:17:09;27.40;24.00;16.00
69346;PMS5003;56494;43.536;5.048;2022-08-04T07:19:36;25.00;24.00;16.20
69346;PMS5003;56494;43.536;5.048;2022-08-04T07:22:03;30.75;25.25;18.00
69346;PMS5003;56494;43.536;5.048;2022-08-04T07:24:54;38.25;23.50;16.00
69346;PMS5003;56494;43.536;5.048;2022-08-04T07:27:22;26.00;25.25;17.50
69346;PMS5003;56494;43.536;5.048;2022-08-04T07:30:09;28.00;24.25;16.00
69346;PMS5003;56494;43.536;5.048;2022-08-04T07:32:36;40.20;23.20;17.00
69346;PMS5003;56494;43.536;5.048;2022-08-04T07:35:04;28.00;25.00;18.00
69346;PMS5003;56494;43.536;5.048;2022-08-04T07:37:32;32.25;21.00;15.00
69346;PMS5003;56494;43.536;5.048;2022-08-04T07:40:05;26.20;22.60;17.00
69346;PMS5003;56494;43.536;5.048;2022-08-04T07:42:32;26.60;23.00;15.00
69346;PMS5003;56494;43.536;5.048;2022-08-04T07:45:00;27.00;24.00;17.00
69346;PMS5003;56494;43.536;5.048;2022-08-04T07:47:26;27.33;22.00;16.00
69346;PMS5003;56494;43.536;5.048;2022-08-04T07:49:53;42.00;23.50;15.50
69346;PMS5003;56494;43.536;5.048;2022-08-04T07:52:23;27.50;23.00;16.75
69346;PMS5003;56494;43.536;5.048;2022-08-04T07:54:51;30.00;25.00;16.00
69346;PMS5003;56494;43.536;5.048;2022-08-04T07:57:18;32.20;26.00;18.00
69346;PMS5003;56494;43.536;5.048;2022-08-04T08:00:06;47.50;29.75;19.00
69346;PMS5003;56494;43.536;5.048;2022-08-04T08:02:33;38.20;26.00;17.20
69346;PMS5003;56494;43.536;5.048;2022-08-04T08:05:01;36.00;30.00;18.00
69346;PMS5003;56494;43.536;5.048;2022-08-04T08:07:27;34.75;24.50;18.00
69346;PMS5003;56494;43.536;5.048;2022-08-04T08:09:54;35.40;30.00;18.40
69346;PMS5003;56494;43.536;5.048;2022-08-04T08:12:21;43.80;27.60;20.00
69346;PMS5003;56494;43.536;5.048;2022-08-04T08:15:08;26.40;24.00;17.60
69346;PMS5003;56494;43.536;5.048;2022-08-04T08:17:38;39.80;26.40;19.00
69346;PMS5003;56494;43.536;5.048;2022-08-04T08:20:25;26.00;24.00;15.75
69346;PMS5003;56494;43.536;5.048;2022-08-04T08:22:55;30.50;24.50;17.50
69346;PMS5003;56494;43.536;5.048;2022-08-04T08:25:21;31.00;24.60;15.20
69346;PMS5003;56494;43.536;5.048;2022-08-04T08:27:48;26.00;24.33;16.00
69346;PMS5003;56494;43.536;5.048;2022-08-04T08:30:21;38.75;26.50;18.00
69346;PMS5003;56494;43.536;5.048;2022-08-04T08:32:49;25.00;25.00;18.00
69346;PMS5003;56494;43.536;5.048;2022-08-04T08:35:16;27.00;22.00;16.00
69346;PMS5003;56494;43.536;5.048;2022-08-04T08:37:47;32.75;23.75;15.75
69346;PMS5003;56494;43.536;5.048;2022-08-04T08:53:52;30.50;28.00;20.00
69346;PMS5003;56494;43.536;5.048;2022-08-04T08:59:02;38.25;28.75;19.00
69346;PMS5003;56494;43.536;5.048;2022-08-04T09:06:56;27.80;24.20;18.00
69346;PMS5003;56494;43.536;5.048;2022-08-04T09:14:34;44.80;27.60;17.60
69346;PMS5003;56494;43.536;5.048;2022-08-04T09:17:10;37.80;29.80;19.20
69346;PMS5003;56494;43.536;5.048;2022-08-04T09:19:41;36.00;28.40;19.00
69346;PMS5003;56494;43.536;5.048;2022-08-04T09:22:10;36.40;22.80;16.20
69346;PMS5003;56494;43.536;5.048;2022-08-04T09:27:18;28.60;22.00;15.00
69346;PMS5003;56494;43.536;5.048;2022-08-04T09:35:02;15.00;15.00;11.00
69346;PMS5003;56494;43.536;5.048;2022-08-04T09:37:43;13.00;13.00;10.00
69346;PMS5003;56494;43.536;5.048;2022-08-04T09:40:17;16.00;14.00;10.00
69346;PMS5003;56494;43.536;5.048;2022-08-04T09:45:35;21.00;19.00;13.60
69346;PMS5003;56494;43.536;5.048;2022-08-04T09:48:20;24.60;18.00;11.40
69346;PMS5003;56494;43.536;5.048;2022-08-04T09:50:50;36.40;20.40;15.40
69346;PMS5003;56494;43.536;5.048;2022-08-04T09:56:08;24.60;18.60;13.00
69346;PMS5003;56494;43.536;5.048;2022-08-04T10:01:07;19.50;19.50;13.00
69346;PMS5003;56494;43.536;5.048;2022-08-04T10:03:35;29.20;23.80;16.40
69346;PMS5003;56494;43.536;5.048;2022-08-04T10:11:21;34.20;26.00;18.00
69346;PMS5003;56494;43.536;5.048;2022-08-04T10:16:37;30.50;25.00;16.00
69346;PMS5003;56494;43.536;5.048;2022-08-04T10:19:14;28.20;24.60;17.00
69346;PMS5003;56494;43.536;5.048;2022-08-04T10:28:02;31.00;26.00;17.00
69346;PMS5003;56494;43.536;5.048;2022-08-04T10:30:09;35.50;26.50;19.00
69346;PMS5003;56494;43.536;5.048;2022-08-04T10:35:24;37.50;31.00;21.00
69346;PMS5003;56494;43.536;5.048;2022-08-04T10:46:06;32.60;24.40;17.00
69346;PMS5003;56494;43.536;5.048;2022-08-04T10:48:54;24.00;22.00;14.50
69346;PMS5003;56494;43.536;5.048;2022-08-04T10:56:58;22.25;16.50;12.00
69346;PMS5003;56494;43.536;5.048;2022-08-04T10:59:50;18.00;16.40;12.40
69346;PMS5003;56494;43.536;5.048;2022-08-04T11:02:19;22.20;18.00;12.20
69346;PMS5003;56494;43.536;5.048;2022-08-04T11:04:54;20.00;17.25;12.25
69346;PMS5003;56494;43.536;5.048;2022-08-04T11:07:24;26.50;16.00;12.00
69346;PMS5003;56494;43.536;5.048;2022-08-04T11:09:55;18.00;18.00;13.00
69346;PMS5003;56494;43.536;5.048;2022-08-04T11:12:23;19.00;16.00;11.75
69346;PMS5003;56494;43.536;5.048;2022-08-04T11:17:46;15.75;14.75;10.75
69346;PMS5003;56494;43.536;5.048;2022-08-04T11:20:17;15.67;13.00;9.67
69346;PMS5003;56494;43.536;5.048;2022-08-04T11:23:10;11.20;9.80;8.00
69346;PMS5003;56494;43.536;5.048;2022-08-04T11:28:27;14.00;12.00;8.00
69346;PMS5003;56494;43.536;5.048;2022-08-04T11:31:06;8.20;8.20;5.80
69346;PMS5003;56494;43.536;5.048;2022-08-04T11:36:29;12.25;8.50;6.25
69346;PMS5003;56494;43.536;5.048;2022-08-04T11:44:17;10.75;10.75;7.25
69346;PMS5003;56494;43.536;5.048;2022-08-04T11:46:46;11.00;11.00;8.00
69346;PMS5003;56494;43.536;5.048;2022-08-04T11:49:20;9.50;9.50;7.00
69346;PMS5003;56494;43.536;5.048;2022-08-04T11:51:49;9.00;6.50;4.75
69346;PMS5003;56494;43.536;5.048;2022-08-04T11:54:17;8.80;7.80;5.00
69346;PMS5003;56494;43.536;5.048;2022-08-04T11:56:44;7.00;7.00;5.00
69346;PMS5003;56494;43.536;5.048;2022-08-04T11:59:11;7.50;5.50;4.50
69346;PMS5003;56494;43.536;5.048;2022-08-04T12:01:59;6.00;6.00;4.33
69346;PMS5003;56494;43.536;5.048;2022-08-04T12:07:16;8.40;8.40;6.00
69346;PMS5003;56494;43.536;5.048;2022-08-04T12:12:42;7.20;7.20;6.00
69346;PMS5003;56494;43.536;5.048;2022-08-04T12:17:56;9.00;7.20;5.20
69346;PMS5003;56494;43.536;5.048;2022-08-04T12:20:33;6.25;6.25;6.00
69346;PMS5003;56494;43.536;5.048;2022-08-04T12:26:26;6.50;6.50;4.50
69346;PMS5003;56494;43.536;5.048;2022-08-04T12:28:57;6.20;6.20;4.20
69346;PMS5003;56494;43.536;5.048;2022-08-04T12:39:26;7.00;5.00;4.00
69346;PMS5003;56494;43.536;5.048;2022-08-04T12:42:03;6.00;6.00;3.50
69346;PMS5003;56494;43.536;5.048;2022-08-04T12:44:33;8.00;6.00;4.00
69346;PMS5003;56494;43.536;5.048;2022-08-04T12:47:04;7.00;7.00;6.00
69346;PMS5003;56494;43.536;5.048;2022-08-04T12:49:52;4.25;4.25;3.75
69346;PMS5003;56494;43.536;5.048;2022-08-04T12:52:26;4.80;4.80;3.40
69346;PMS5003;56494;43.536;5.048;2022-08-04T12:55:14;6.00;6.00;6.00
69346;PMS5003;56494;43.536;5.048;2022-08-04T12:57:42;3.25;3.25;3.00
69346;PMS5003;56494;43.536;5.048;2022-08-04T13:00:09;6.00;4.00;3.00
69346;PMS5003;56494;43.536;5.048;2022-08-04T13:02:37;3.75;3.75;3.25
69346;PMS5003;56494;43.536;5.048;2022-08-04T13:05:06;5.00;5.00;4.00
69346;PMS5003;56494;43.536;5.048;2022-08-04T13:07:43;5.40;5.40;4.40
69346;PMS5003;56494;43.536;5.048;2022-08-04T13:10:16;5.00;4.00;3.00
69346;PMS5003;56494;43.536;5.048;2022-08-04T13:12:58;6.50;5.00;4.00
69346;PMS5003;56494;43.536;5.048;2022-08-04T13:15:26;3.00;3.00;3.00
69346;PMS5003;56494;43.536;5.048;2022-08-04T13:18:04;3.00;3.00;3.00
69346;PMS5003;56494;43.536;5.048;2022-08-04T13:20:40;7.00;5.00;4.00
69346;PMS5003;56494;43.536;5.048;2022-08-04T13:23:09;6.80;6.80;4.00
69346;PMS5003;56494;43.536;5.048;2022-08-04T13:25:40;8.80;8.80;6.80
69346;PMS5003;56494;43.536;5.048;2022-08-04T13:28:28;9.00;7.00;6.00
69346;PMS5003;56494;43.536;5.048;2022-08-04T13:31:00;7.75;7.75;6.25
69346;PMS5003;56494;43.536;5.048;2022-08-04T13:33:31;8.00;8.00;6.00
69346;PMS5003;56494;43.536;5.048;2022-08-04T13:35:59;7.25;7.25;7.00
69346;PMS5003;56494;43.536;5.048;2022-08-04T13:38:27;8.50;6.50;5.50
69346;PMS5003;56494;43.536;5.048;2022-08-04T13:41:04;7.00;7.00;5.00
69346;PMS5003;56494;43.536;5.048;2022-08-04T13:43:44;4.60;4.60;3.00
69346;PMS5003;56494;43.536;5.048;2022-08-04T13:46:32;4.40;4.40;3.00
69346;PMS5003;56494;43.536;5.048;2022-08-04T13:49:02;5.00;5.00;4.00
69346;PMS5003;56494;43.536;5.048;2022-08-04T13:51:54;6.00;5.00;4.00
69346;PMS5003;56494;43.536;5.048;2022-08-04T13:54:24;4.60;4.60;3.60
69346;PMS5003;56494;43.536;5.048;2022-08-04T13:56:55;2.80;2.80;2.20
69346;PMS5003;56494;43.536;5.048;2022-08-04T13:59:25;4.00;4.00;3.00
69346;PMS5003;56494;43.536;5.048;2022-08-04T14:02:03;5.60;4.60;2.60
69346;PMS5003;56494;43.536;5.048;2022-08-04T14:04:30;4.00;4.00;3.00
69346;PMS5003;56494;43.536;5.048;2022-08-04T14:07:02;5.00;5.00;3.00
69346;PMS5003;56494;43.536;5.048;2022-08-04T14:09:31;5.00;5.00;3.00
69346;PMS5003;56494;43.536;5.048;2022-08-04T14:12:07;4.40;4.40;3.40
69346;PMS5003;56494;43.536;5.048;2022-08-04T14:14:54;6.00;6.00;4.00
69346;PMS5003;56494;43.536;5.048;2022-08-04T14:17:24;7.20;5.60;4.00
69346;PMS5003;56494;43.536;5.048;2022-08-04T14:19:59;7.00;6.00;5.00
69346;PMS5003;56494;43.536;5.048;2022-08-04T14:25:10;7.00;7.00;5.00
69346;PMS5003;56494;43.536;5.048;2022-08-04T14:27:48;4.00;4.00;3.00
69346;PMS5003;56494;43.536;5.048;2022-08-04T14:36:04;6.00;6.00;5.00
69346;PMS5003;56494;43.536;5.048;2022-08-04T14:38:41;7.60;6.40;5.40
69346;PMS5003;56494;43.536;5.048;2022-08-04T14:41:08;6.75;6.75;5.00
69346;PMS5003;56494;43.536;5.048;2022-08-04T14:43:45;8.00;6.50;4.00
69346;PMS5003;56494;43.536;5.048;2022-08-04T14:46:12;8.60;8.60;7.00
69346;PMS5003;56494;43.536;5.048;2022-08-04T14:48:40;8.00;8.00;6.00
69346;PMS5003;56494;43.536;5.048;2022-08-04T14:51:26;7.00;7.00;5.00
69346;PMS5003;56494;43.536;5.048;2022-08-04T14:54:02;6.80;6.80;5.00
69346;PMS5003;56494;43.536;5.048;2022-08-04T14:56:34;6.00;6.00;4.00
69346;PMS5003;56494;43.536;5.048;2022-08-04T14:59:12;7.60;7.60;6.00
69346;PMS5003;56494;43.536;5.048;2022-08-04T15:01:39;8.00;8.00;6.00
69346;PMS5003;56494;43.536;5.048;2022-08-04T15:04:07;7.40;7.40;5.60
69346;PMS5003;56494;43.536;5.048;2022-08-04T15:06:35;7.00;7.00;5.00
69346;PMS5003;56494;43.536;5.048;2022-08-04T15:09:05;8.00;8.00;6.00
69346;PMS5003;56494;43.536;5.048;2022-08-04T15:11:33;7.60;7.60;5.60
69346;PMS5003;56494;43.536;5.048;2022-08-04T15:14:04;13.00;9.00;8.00
69346;PMS5003;56494;43.536;5.048;2022-08-04T15:16:31;12.00;9.00;7.00
69346;PMS5003;56494;43.536;5.048;2022-08-04T15:18:58;9.20;9.20;7.00
69346;PMS5003;56494;43.536;5.048;2022-08-04T15:21:26;11.00;9.00;7.00
69346;PMS5003;56494;43.536;5.048;2022-08-04T15:23:55;10.00;8.60;7.00
69346;PMS5003;56494;43.536;5.048;2022-08-04T15:26:33;9.20;9.20;7.00
69346;PMS5003;56494;43.536;5.048;2022-08-04T15:29:04;8.00;6.33;5.00
69346;PMS5003;56494;43.536;5.048;2022-08-04T15:31:34;7.00;7.00;5.40
69346;PMS5003;56494;43.536;5.048;2022-08-04T15:34:23;7.40;7.40;6.00
69346;PMS5003;56494;43.536;5.048;2022-08-04T15:42:17;8.20;8.20;7.20
69346;PMS5003;56494;43.536;5.048;2022-08-04T15:47:16;11.50;11.50;8.00
69346;PMS5003;56494;43.536;5.048;2022-08-04T15:49:43;8.00;8.00;7.00
69346;PMS5003;56494;43.536;5.048;2022-08-04T15:52:11;8.00;8.00;6.00
69346;PMS5003;56494;43.536;5.048;2022-08-04T15:54:40;11.80;10.20;7.00
69346;PMS5003;56494;43.536;5.048;2022-08-04T15:57:17;13.00;9.00;6.60
69346;PMS5003;56494;43.536;5.048;2022-08-04T16:00:04;11.00;9.00;7.60
69346;PMS5003;56494;43.536;5.048;2022-08-04T16:02:40;8.00;8.00;7.00
69346;PMS5003;56494;43.536;5.048;2022-08-04T16:12:56;8.00;8.00;6.40
69346;PMS5003;56494;43.536;5.048;2022-08-04T16:18:09;11.80;10.80;8.00
69346;PMS5003;56494;43.536;5.048;2022-08-04T16:23:49;8.00;6.20;5.00
69346;PMS5003;56494;43.536;5.048;2022-08-04T16:29:03;9.00;9.00;8.00
69346;PMS5003;56494;43.536;5.048;2022-08-04T16:34:36;8.00;8.00;7.00
69346;PMS5003;56494;43.536;5.048;2022-08-04T16:37:16;9.00;9.00;6.00
69346;PMS5003;56494;43.536;5.048;2022-08-04T16:39:43;10.00;10.00;7.00
69346;PMS5003;56494;43.536;5.048;2022-08-04T16:45:37;9.00;9.00;7.00
69346;PMS5003;56494;43.536;5.048;2022-08-04T16:50:13;7.25;7.25;6.00
69346;PMS5003;56494;43.536;5.048;2022-08-04T16:52:43;8.00;8.00;6.00
69346;PMS5003;56494;43.536;5.048;2022-08-04T16:55:11;9.00;9.00;7.00
69346;PMS5003;56494;43.536;5.048;2022-08-04T16:57:37;8.00;8.00;5.60
69346;PMS5003;56494;43.536;5.048;2022-08-04T17:00:04;9.00;9.00;6.80
69346;PMS5003;56494;43.536;5.048;2022-08-04T17:02:32;7.80;7.60;6.00
69346;PMS5003;56494;43.536;5.048;2022-08-04T17:05:00;10.00;8.50;6.50
69346;PMS5003;56494;43.536;5.048;2022-08-04T17:07:55;9.00;9.00;6.00
69346;PMS5003;56494;43.536;5.048;2022-08-04T17:10:43;8.00;8.00;6.00
69346;PMS5003;56494;43.536;5.048;2022-08-04T17:13:21;10.00;8.00;6.00
69346;PMS5003;56494;43.536;5.048;2022-08-04T17:16:09;13.00;10.00;7.00
69346;PMS5003;56494;43.536;5.048;2022-08-04T17:18:47;8.75;8.50;6.75
69346;PMS5003;56494;43.536;5.048;2022-08-04T17:21:15;10.00;10.00;7.60
69346;PMS5003;56494;43.536;5.048;2022-08-04T17:23:45;7.50;7.50;6.00
69346;PMS5003;56494;43.536;5.048;2022-08-04T17:26:37;8.00;8.00;6.60
69346;PMS5003;56494;43.536;5.048;2022-08-04T17:29:07;8.00;8.00;6.50
69346;PMS5003;56494;43.536;5.048;2022-08-04T17:31:35;13.60;10.40;7.00
69346;PMS5003;56494;43.536;5.048;2022-08-04T17:34:10;11.00;11.00;8.00
69346;PMS5003;56494;43.536;5.048;2022-08-04T17:36:41;9.20;9.20;7.80
69346;PMS5003;56494;43.536;5.048;2022-08-04T17:39:09;12.20;11.00;7.00
69346;PMS5003;56494;43.536;5.048;2022-08-04T17:41:42;10.00;10.00;7.00
69346;PMS5003;56494;43.536;5.048;2022-08-04T17:44:14;8.80;8.80;7.00
69346;PMS5003;56494;43.536;5.048;2022-08-04T17:46:42;12.00;11.00;8.40
69346;PMS5003;56494;43.536;5.048;2022-08-04T17:51:44;9.75;9.75;7.00
69346;PMS5003;56494;43.536;5.048;2022-08-04T17:54:34;11.40;10.00;8.00
69346;PMS5003;56494;43.536;5.048;2022-08-04T17:57:17;10.60;9.00;7.00
69346;PMS5003;56494;43.536;5.048;2022-08-04T17:59:55;9.00;9.00;7.00
69346;PMS5003;56494;43.536;5.048;2022-08-04T18:04:59;8.00;8.00;6.40
69346;PMS5003;56494;43.536;5.048;2022-08-04T18:07:46;10.00;8.20;6.00
69346;PMS5003;56494;43.536;5.048;2022-08-04T18:10:43;8.75;7.75;5.75
69346;PMS5003;56494;43.536;5.048;2022-08-04T18:13:25;10.00;9.50;7.00
69346;PMS5003;56494;43.536;5.048;2022-08-04T18:16:02;9.60;9.60;6.60
69346;PMS5003;56494;43.536;5.048;2022-08-04T18:18:28;9.00;9.00;7.00
69346;PMS5003;56494;43.536;5.048;2022-08-04T18:20:55;10.60;10.40;7.00
69346;PMS5003;56494;43.536;5.048;2022-08-04T18:23:28;7.00;7.00;7.00
69346;PMS5003;56494;43.536;5.048;2022-08-04T18:25:57;9.00;8.60;7.00
69346;PMS5003;56494;43.536;5.048;2022-08-04T18:28:27;7.40;7.40;6.00
69346;PMS5003;56494;43.536;5.048;2022-08-04T18:30:59;10.00;10.00;7.00
69346;PMS5003;56494;43.536;5.048;2022-08-04T18:33:25;8.75;8.75;7.75
69346;PMS5003;56494;43.536;5.048;2022-08-04T18:36:06;11.00;9.00;7.00
69346;PMS5003;56494;43.536;5.048;2022-08-04T18:38:52;11.75;10.00;7.00
69346;PMS5003;56494;43.536;5.048;2022-08-04T18:41:24;9.25;9.25;7.25
69346;PMS5003;56494;43.536;5.048;2022-08-04T18:44:10;12.00;9.00;8.00
69346;PMS5003;56494;43.536;5.048;2022-08-04T18:46:38;11.50;10.00;7.00
69346;PMS5003;56494;43.536;5.048;2022-08-04T18:49:18;9.60;9.00;7.00
69346;PMS5003;56494;43.536;5.048;2022-08-04T18:52:05;9.80;8.80;6.80
69346;PMS5003;56494;43.536;5.048;2022-08-04T18:54:40;11.20;9.80;7.60
69346;PMS5003;56494;43.536;5.048;2022-08-04T18:57:07;11.25;9.00;7.00
69346;PMS5003;56494;43.536;5.048;2022-08-04T18:59:54;9.00;8.00;6.00
69346;PMS5003;56494;43.536;5.048;2022-08-04T19:02:21;10.60;9.00;8.00
69346;PMS5003;56494;43.536;5.048;2022-08-04T19:04:51;9.25;9.25;8.00
69346;PMS5003;56494;43.536;5.048;2022-08-04T19:07:18;9.00;9.00;7.00
69346;PMS5003;56494;43.536;5.048;2022-08-04T19:10:05;10.60;8.60;7.00
69346;PMS5003;56494;43.536;5.048;2022-08-04T19:12:49;9.00;9.00;6.40
69346;PMS5003;56494;43.536;5.048;2022-08-04T19:15:16;12.00;10.25;7.25
69346;PMS5003;56494;43.536;5.048;2022-08-04T19:17:44;8.60;8.00;6.00
69346;PMS5003;56494;43.536;5.048;2022-08-04T19:20:22;9.00;9.00;7.00